Time;durP1;ratioP1;P1;durP2;ratioP2;P2;SDS_P1;SDS_P2;PMS_P1;PMS_P2;Temp;Humidity;BMP_temperature;BMP_pressure;BME280_temperature;BME280_humidity;BME280_pressure;Samples;Min_cycle;Max_cycle;Signal;HPM_P1;HPM_P2
2023/07/18 00:01:06;;;;;;;1.50;1.40;;;14.10;99.90;;;;;;486024;244;28744;-78
2023/07/18 00:03:06;;;;;;;3.20;2.00;;;14.10;99.90;;;;;;486142;244;28697;-79
2023/07/18 00:05:08;;;;;;;6.83;3.93;;;14.10;99.90;;;;;;486086;244;29228;-78
2023/07/18 00:07:09;;;;;;;7.60;2.60;;;14.10;99.90;;;;;;485955;243;29337;-81
2023/07/18 00:09:11;;;;;;;4.60;2.80;;;13.90;99.90;;;;;;486088;244;29271;-79
2023/07/18 00:11:11;;;;;;;3.30;2.40;;;13.60;99.90;;;;;;486082;244;29235;-79
2023/07/18 00:13:13;;;;;;;2.30;2.10;;;13.60;99.90;;;;;;486102;244;28793;-79
2023/07/18 00:15:14;;;;;;;3.13;1.97;;;13.60;99.90;;;;;;486046;244;28748;-76
2023/07/18 00:17:15;;;;;;;2.03;1.80;;;13.70;99.90;;;;;;486122;243;28740;-79
2023/07/18 00:19:19;;;;;;;6.10;1.83;;;13.80;99.90;;;;;;486148;244;28829;-78
2023/07/18 00:21:18;;;;;;;2.90;1.80;;;13.80;99.90;;;;;;486021;244;28744;-78
2023/07/18 00:23:19;;;;;;;3.60;1.77;;;13.80;99.90;;;;;;486143;244;28734;-80
2023/07/18 00:25:20;;;;;;;3.13;2.10;;;13.70;99.90;;;;;;486137;244;28783;-78
2023/07/18 00:27:21;;;;;;;2.33;1.80;;;13.70;99.90;;;;;;486177;244;28729;-78
2023/07/18 00:29:23;;;;;;;2.43;1.63;;;13.60;99.90;;;;;;486160;244;29150;-78
2023/07/18 00:31:24;;;;;;;2.03;1.73;;;13.50;99.90;;;;;;486049;244;29309;-80
2023/07/18 00:33:26;;;;;;;2.70;1.70;;;13.50;99.90;;;;;;486141;244;29218;-80
2023/07/18 00:35:27;;;;;;;1.93;1.53;;;13.50;99.90;;;;;;486090;244;29343;-77
2023/07/18 00:37:28;;;;;;;1.70;1.60;;;13.60;99.90;;;;;;486188;244;28488;-80
2023/07/18 00:39:29;;;;;;;6.60;1.67;;;13.60;99.90;;;;;;486081;244;28506;-79
2023/07/18 00:41:30;;;;;;;3.27;1.80;;;13.60;99.90;;;;;;486058;244;28827;-77
2023/07/18 00:43:31;;;;;;;1.87;1.57;;;13.60;99.90;;;;;;486053;244;28720;-78
2023/07/18 00:45:33;;;;;;;3.40;1.70;;;13.60;99.90;;;;;;486083;244;28840;-77
2023/07/18 00:47:43;;;;;;;2.93;1.57;;;13.60;99.90;;;;;;486099;244;28722;-79
2023/07/18 00:49:44;;;;;;;2.00;1.70;;;13.60;99.90;;;;;;486070;244;28512;-77
2023/07/18 00:51:46;;;;;;;2.20;1.73;;;13.70;99.90;;;;;;486182;244;28793;-80
2023/07/18 00:53:47;;;;;;;2.73;1.80;;;13.60;99.90;;;;;;486093;244;28754;-78
2023/07/18 00:55:48;;;;;;;3.07;1.97;;;13.60;99.90;;;;;;486159;244;28359;-79
2023/07/18 00:57:49;;;;;;;1.53;1.40;;;13.70;99.90;;;;;;486145;244;28472;-78
2023/07/18 00:59:50;;;;;;;3.03;1.80;;;13.60;99.90;;;;;;486159;244;28719;-78
2023/07/18 01:01:52;;;;;;;2.07;1.60;;;13.50;99.90;;;;;;486139;244;28734;-80
2023/07/18 01:03:53;;;;;;;5.63;2.07;;;13.40;99.90;;;;;;486140;244;28932;-78
2023/07/18 01:05:54;;;;;;;1.73;1.63;;;13.40;99.90;;;;;;486039;244;28976;-77
2023/07/18 01:07:55;;;;;;;3.43;1.80;;;13.40;99.90;;;;;;486058;244;29236;-78
2023/07/18 01:09:57;;;;;;;1.50;1.43;;;13.40;99.90;;;;;;486085;244;29495;-78
2023/07/18 01:11:58;;;;;;;5.03;1.80;;;13.30;99.90;;;;;;486095;244;28498;-80
2023/07/18 01:13:59;;;;;;;1.70;1.50;;;13.20;99.90;;;;;;486076;244;28450;-79
2023/07/18 01:16:01;;;;;;;2.30;1.77;;;13.10;99.90;;;;;;486062;244;28413;-79
2023/07/18 01:18:08;;;;;;;4.63;1.60;;;13.10;99.90;;;;;;486028;244;28397;-77
2023/07/18 01:20:10;;;;;;;2.60;1.87;;;13.00;99.90;;;;;;485860;244;28914;-79
2023/07/18 01:22:08;;;;;;;3.57;2.07;;;13.00;99.90;;;;;;485952;244;28375;-77
2023/07/18 01:24:08;;;;;;;2.10;1.67;;;13.00;99.90;;;;;;486129;243;28371;-79
2023/07/18 01:26:10;;;;;;;2.33;1.80;;;13.00;99.90;;;;;;486062;244;28352;-80
2023/07/18 01:28:11;;;;;;;2.43;1.90;;;13.00;99.90;;;;;;486137;244;28393;-78
2023/07/18 01:30:12;;;;;;;1.90;1.67;;;13.00;99.90;;;;;;486143;244;28746;-79
2023/07/18 01:32:13;;;;;;;2.93;1.70;;;12.90;99.90;;;;;;486078;244;28399;-78
2023/07/18 01:34:15;;;;;;;3.50;2.20;;;12.80;99.90;;;;;;486061;244;28131;-78
2023/07/18 01:36:16;;;;;;;3.40;1.67;;;12.70;99.90;;;;;;486099;244;28582;-80
2023/07/18 01:38:17;;;;;;;4.07;2.07;;;12.70;99.90;;;;;;486088;244;28570;-77
2023/07/18 01:40:21;;;;;;;2.33;1.60;;;12.70;99.90;;;;;;486185;244;28833;-80
2023/07/18 01:42:23;;;;;;;2.43;1.70;;;12.60;99.90;;;;;;486212;244;28736;-79
2023/07/18 01:44:24;;;;;;;3.70;2.20;;;12.60;99.90;;;;;;486115;244;28955;-77
2023/07/18 01:46:25;;;;;;;2.80;2.07;;;12.60;99.90;;;;;;486192;244;28985;-83
2023/07/18 01:48:26;;;;;;;2.57;1.70;;;12.60;99.90;;;;;;486178;244;28331;-78
2023/07/18 01:50:28;;;;;;;2.00;1.90;;;12.50;99.90;;;;;;486202;244;28187;-79
2023/07/18 01:52:29;;;;;;;2.90;2.00;;;12.50;99.90;;;;;;486216;244;28180;-81
2023/07/18 01:54:30;;;;;;;1.80;1.70;;;12.50;99.90;;;;;;486182;244;28246;-79
2023/07/18 01:56:31;;;;;;;2.30;2.10;;;12.50;99.90;;;;;;486169;244;28085;-79
2023/07/18 01:58:33;;;;;;;10.43;2.10;;;12.50;99.90;;;;;;486149;244;28138;-78
2023/07/18 02:00:35;;;;;;;2.40;1.90;;;12.50;99.90;;;;;;486082;244;28538;-77
2023/07/18 02:02:35;;;;;;;1.87;1.70;;;12.50;99.90;;;;;;486047;244;28095;-80
2023/07/18 02:04:36;;;;;;;2.20;2.00;;;12.50;99.90;;;;;;486076;244;28217;-79
2023/07/18 02:06:38;;;;;;;4.67;1.80;;;12.50;99.90;;;;;;486063;244;28720;-79
2023/07/18 02:08:40;;;;;;;2.83;2.00;;;;;;;;;;486042;244;28759;-77
2023/07/18 02:10:41;;;;;;;2.13;1.93;;;12.30;99.90;;;;;;486094;243;26379;-78
2023/07/18 02:12:42;;;;;;;2.43;1.97;;;12.40;99.90;;;;;;486073;244;28206;-78
2023/07/18 02:14:44;;;;;;;2.43;2.23;;;12.30;99.90;;;;;;486061;244;28057;-77
2023/07/18 02:16:45;;;;;;;4.67;1.90;;;12.30;99.90;;;;;;486031;244;28110;-78
2023/07/18 02:18:46;;;;;;;1.90;1.80;;;12.30;99.90;;;;;;486073;244;28125;-77
2023/07/18 02:20:47;;;;;;;2.27;1.67;;;12.30;99.90;;;;;;486076;244;28600;-79
2023/07/18 02:22:50;;;;;;;2.40;1.93;;;12.30;99.90;;;;;;486086;244;28647;-78
2023/07/18 02:24:50;;;;;;;3.60;2.30;;;12.40;99.90;;;;;;486007;244;28731;-78
2023/07/18 02:26:54;;;;;;;8.03;2.23;;;12.40;99.90;;;;;;486058;244;28152;-77
2023/07/18 02:28:54;;;;;;;3.73;1.87;;;12.30;99.90;;;;;;486106;244;28211;-79
2023/07/18 02:30:54;;;;;;;2.50;2.10;;;12.40;99.90;;;;;;486117;244;28088;-80
2023/07/18 02:32:55;;;;;;;2.40;1.90;;;12.40;99.90;;;;;;486184;244;28326;-79
2023/07/18 02:34:56;;;;;;;2.23;2.03;;;12.40;99.90;;;;;;486050;244;28084;-78
2023/07/18 02:36:58;;;;;;;2.10;1.90;;;12.50;99.90;;;;;;486075;244;28742;-79
2023/07/18 02:38:59;;;;;;;3.50;2.40;;;12.50;99.90;;;;;;486098;244;28200;-77
2023/07/18 02:41:00;;;;;;;3.17;2.10;;;12.40;99.90;;;;;;486186;244;28756;-80
2023/07/18 02:43:01;;;;;;;2.33;1.90;;;12.30;99.90;;;;;;486140;244;28632;-78
2023/07/18 02:45:03;;;;;;;2.97;2.13;;;12.30;99.90;;;;;;486135;244;28623;-81
2023/07/18 02:47:04;;;;;;;3.10;2.50;;;12.30;99.90;;;;;;486136;244;28578;-78
2023/07/18 02:49:05;;;;;;;3.43;2.37;;;12.30;99.90;;;;;;486059;244;28611;-76
2023/07/18 02:51:06;;;;;;;2.40;2.00;;;12.20;99.90;;;;;;486131;244;28060;-79
2023/07/18 02:53:08;;;;;;;4.80;2.40;;;12.10;99.90;;;;;;486162;244;28207;-79
2023/07/18 02:55:09;;;;;;;3.30;2.10;;;12.20;99.90;;;;;;486066;244;28276;-79
2023/07/18 02:57:10;;;;;;;1.70;1.60;;;12.20;99.90;;;;;;486114;244;28183;-78
2023/07/18 02:59:11;;;;;;;2.33;1.87;;;12.20;99.90;;;;;;486124;244;28122;-77
2023/07/18 03:01:13;;;;;;;1.80;1.70;;;12.20;99.90;;;;;;486075;244;28724;-79
2023/07/18 03:03:14;;;;;;;2.60;2.10;;;12.10;99.90;;;;;;486079;244;28140;-79
2023/07/18 03:05:16;;;;;;;3.13;1.73;;;12.20;99.90;;;;;;486083;244;28168;-79
2023/07/18 03:07:17;;;;;;;2.53;1.87;;;12.20;99.90;;;;;;486035;244;28640;-79
2023/07/18 03:09:24;;;;;;;3.67;2.27;;;12.20;99.90;;;;;;486089;244;28825;-78
2023/07/18 03:11:22;;;;;;;1.73;1.63;;;12.20;99.90;;;;;;486019;243;28338;-80
2023/07/18 03:13:26;;;;;;;3.83;2.00;;;;;;;;;;486075;244;28150;-78
2023/07/18 03:15:25;;;;;;;2.30;2.10;;;12.00;99.90;;;;;;486176;242;26610;-79
2023/07/18 03:17:28;;;;;;;4.67;2.07;;;;;;;;;;486136;244;28274;-77
2023/07/18 03:19:31;;;;;;;2.97;2.33;;;12.00;99.90;;;;;;486065;244;26366;-79
2023/07/18 03:21:30;;;;;;;2.40;2.20;;;12.10;99.90;;;;;;485953;244;28611;-79
2023/07/18 03:23:32;;;;;;;1.83;1.73;;;12.20;99.90;;;;;;486050;244;29283;-79
2023/07/18 03:25:33;;;;;;;2.27;2.10;;;12.20;99.90;;;;;;486167;244;28535;-79
2023/07/18 03:27:34;;;;;;;3.10;2.00;;;12.10;99.90;;;;;;486061;244;28191;-78
2023/07/18 03:29:35;;;;;;;4.03;2.30;;;12.10;99.90;;;;;;486150;244;28185;-82
2023/07/18 03:31:39;;;;;;;3.40;2.30;;;;;;;;;;486150;244;28212;-78
2023/07/18 03:33:40;;;;;;;2.33;2.13;;;12.10;99.90;;;;;;486097;242;26506;-78
2023/07/18 03:35:40;;;;;;;2.70;2.10;;;12.20;99.90;;;;;;486128;244;28789;-77
2023/07/18 03:37:42;;;;;;;4.20;2.73;;;12.20;99.90;;;;;;486098;244;28745;-79
2023/07/18 03:39:43;;;;;;;4.30;2.37;;;12.30;99.90;;;;;;486072;244;28584;-80
2023/07/18 03:41:44;;;;;;;6.13;2.70;;;12.30;99.90;;;;;;486105;244;28164;-80
2023/07/18 03:43:46;;;;;;;3.60;2.50;;;12.40;99.90;;;;;;486080;244;28060;-81
2023/07/18 03:45:47;;;;;;;2.17;2.07;;;12.40;99.90;;;;;;486154;244;28196;-79
2023/07/18 03:47:48;;;;;;;4.50;2.40;;;12.40;99.90;;;;;;486043;244;28147;-78
2023/07/18 03:49:49;;;;;;;3.70;2.53;;;12.30;99.90;;;;;;485975;244;28219;-80
2023/07/18 03:51:52;;;;;;;2.83;2.43;;;;;;;;;;486112;244;28729;-79
2023/07/18 03:53:53;;;;;;;5.50;2.50;;;12.30;99.90;;;;;;486159;243;26542;-77
2023/07/18 03:55:54;;;;;;;3.47;2.60;;;12.30;99.90;;;;;;486134;244;28156;-79
2023/07/18 03:57:55;;;;;;;2.27;2.03;;;12.40;99.90;;;;;;486080;244;28199;-78
2023/07/18 03:59:56;;;;;;;3.23;2.23;;;12.30;99.90;;;;;;486095;243;28092;-81
2023/07/18 04:01:58;;;;;;;4.50;2.60;;;12.30;99.90;;;;;;486087;244;27975;-78
2023/07/18 04:03:59;;;;;;;4.03;2.43;;;12.30;99.90;;;;;;486083;244;28752;-77
2023/07/18 04:06:01;;;;;;;3.63;2.80;;;12.20;99.90;;;;;;486089;244;28121;-79
2023/07/18 04:08:01;;;;;;;8.87;2.57;;;12.20;99.90;;;;;;486057;244;28293;-81
2023/07/18 04:10:03;;;;;;;2.40;1.90;;;12.30;99.90;;;;;;486102;244;28298;-78
2023/07/18 04:12:05;;;;;;;4.20;2.43;;;12.30;99.90;;;;;;486070;244;28628;-80
2023/07/18 04:14:05;;;;;;;3.60;2.83;;;12.40;99.90;;;;;;486119;244;28721;-78
2023/07/18 04:16:07;;;;;;;3.80;2.20;;;12.40;99.90;;;;;;486156;244;28733;-80
2023/07/18 04:18:08;;;;;;;2.90;2.40;;;12.40;99.90;;;;;;486049;244;28260;-79
2023/07/18 04:20:10;;;;;;;3.13;2.20;;;12.40;99.90;;;;;;486210;244;28171;-79
2023/07/18 04:22:10;;;;;;;3.33;2.57;;;12.50;99.90;;;;;;486118;244;28112;-78
2023/07/18 04:24:11;;;;;;;3.13;2.60;;;12.50;99.90;;;;;;486145;244;28108;-79
2023/07/18 04:26:14;;;;;;;3.00;2.37;;;;;;;;;;486050;244;28063;-78
2023/07/18 04:28:16;;;;;;;2.40;2.20;;;;;;;;;;486130;243;27138;-78
2023/07/18 04:30:18;;;;;;;4.57;2.90;;;12.70;99.90;;;;;;486160;243;26558;-77
2023/07/18 04:32:19;;;;;;;5.90;2.10;;;12.80;99.90;;;;;;486155;244;28177;-82
2023/07/18 04:34:20;;;;;;;3.33;2.77;;;12.90;99.90;;;;;;486000;244;28243;-78
2023/07/18 04:36:21;;;;;;;6.37;2.90;;;12.90;99.90;;;;;;486128;244;28599;-79
2023/07/18 04:38:23;;;;;;;3.77;3.00;;;13.00;99.90;;;;;;486031;244;28626;-78
2023/07/18 04:40:24;;;;;;;4.03;2.63;;;13.00;99.90;;;;;;486062;244;29036;-77
2023/07/18 04:42:25;;;;;;;3.70;2.70;;;13.00;99.90;;;;;;486031;244;28760;-79
2023/07/18 04:44:26;;;;;;;3.10;2.40;;;13.00;99.90;;;;;;486092;244;28496;-80
2023/07/18 04:46:28;;;;;;;4.63;2.93;;;13.00;99.90;;;;;;486126;243;28135;-77
2023/07/18 04:48:29;;;;;;;4.83;3.20;;;13.00;99.90;;;;;;486121;244;28386;-77
2023/07/18 04:50:30;;;;;;;9.23;3.10;;;13.00;99.90;;;;;;486146;244;28123;-79
2023/07/18 04:52:32;;;;;;;3.77;2.70;;;13.10;99.90;;;;;;486187;244;28339;-80
2023/07/18 04:54:33;;;;;;;6.63;3.00;;;13.10;99.90;;;;;;486056;244;28104;-79
2023/07/18 04:56:34;;;;;;;4.33;2.50;;;13.20;99.90;;;;;;486152;244;28217;-79
2023/07/18 04:58:35;;;;;;;3.03;2.53;;;13.20;99.90;;;;;;486110;244;28523;-79
2023/07/18 05:00:36;;;;;;;4.60;3.13;;;13.30;99.90;;;;;;486041;244;28426;-78
2023/07/18 05:02:38;;;;;;;3.13;2.83;;;13.40;99.90;;;;;;486064;244;28942;-80
2023/07/18 05:04:39;;;;;;;3.23;2.67;;;13.50;99.90;;;;;;486123;244;29309;-78
2023/07/18 05:06:40;;;;;;;5.17;2.67;;;13.50;99.90;;;;;;486148;244;29321;-78
2023/07/18 05:08:41;;;;;;;2.93;2.70;;;13.40;99.90;;;;;;486130;244;28466;-78
2023/07/18 05:10:43;;;;;;;5.00;2.80;;;13.40;99.90;;;;;;486049;244;28343;-80
2023/07/18 05:12:44;;;;;;;3.43;2.33;;;13.50;99.90;;;;;;486025;244;28371;-80
2023/07/18 05:14:45;;;;;;;11.03;3.07;;;13.60;99.90;;;;;;486053;244;28463;-78
2023/07/18 05:16:46;;;;;;;4.83;3.10;;;14.00;99.90;;;;;;486090;244;28767;-76
2023/07/18 05:18:48;;;;;;;3.60;2.60;;;14.10;99.90;;;;;;486062;244;28386;-80
2023/07/18 05:20:49;;;;;;;5.67;2.93;;;14.40;99.90;;;;;;486081;244;28446;-80
2023/07/18 05:22:50;;;;;;;5.53;3.00;;;14.50;99.90;;;;;;486032;244;28714;-81
2023/07/18 05:24:51;;;;;;;3.93;3.33;;;14.80;99.90;;;;;;486115;243;28760;-77
2023/07/18 05:26:53;;;;;;;5.10;3.17;;;14.90;99.90;;;;;;486102;244;29236;-77
2023/07/18 05:28:54;;;;;;;4.87;2.97;;;15.20;99.90;;;;;;486145;244;29317;-80
2023/07/18 05:30:55;;;;;;;6.03;3.80;;;15.30;99.90;;;;;;486119;243;29315;-80
2023/07/18 05:32:56;;;;;;;4.83;3.07;;;15.40;99.90;;;;;;486139;244;28785;-80
2023/07/18 05:34:58;;;;;;;8.73;2.87;;;15.40;99.90;;;;;;486112;244;28749;-79
2023/07/18 05:37:00;;;;;;;4.33;3.33;;;15.50;99.90;;;;;;486133;244;28829;-77
2023/07/18 05:39:00;;;;;;;4.27;2.97;;;15.50;99.90;;;;;;486068;244;28773;-78
2023/07/18 05:41:01;;;;;;;5.50;3.23;;;15.70;99.90;;;;;;486107;243;28744;-78
2023/07/18 05:43:03;;;;;;;4.47;3.47;;;15.70;99.90;;;;;;486067;244;28804;-78
2023/07/18 05:45:05;;;;;;;4.70;3.43;;;15.80;99.90;;;;;;486093;244;28818;-82
2023/07/18 05:47:05;;;;;;;3.70;2.80;;;15.90;99.90;;;;;;486086;244;28753;-81
2023/07/18 05:49:06;;;;;;;5.87;3.90;;;16.00;99.90;;;;;;486078;244;28706;-78
2023/07/18 05:51:08;;;;;;;6.20;3.60;;;16.10;99.90;;;;;;486023;244;29161;-79
2023/07/18 05:53:09;;;;;;;4.40;3.20;;;16.20;99.90;;;;;;486033;244;29206;-81
2023/07/18 05:55:12;;;;;;;5.93;3.53;;;16.30;99.90;;;;;;486068;244;29282;-81
2023/07/18 05:57:11;;;;;;;5.70;3.40;;;16.30;99.90;;;;;;485985;244;29325;-79
2023/07/18 05:59:13;;;;;;;8.63;3.73;;;16.30;99.90;;;;;;486040;244;28706;-80
2023/07/18 06:01:14;;;;;;;4.60;3.30;;;16.40;99.90;;;;;;486047;244;28797;-79
2023/07/18 06:03:15;;;;;;;3.47;3.10;;;16.40;99.90;;;;;;486058;244;28738;-80
2023/07/18 06:05:16;;;;;;;6.13;3.37;;;16.50;99.90;;;;;;486027;244;28839;-78
2023/07/18 06:07:18;;;;;;;5.63;3.23;;;16.60;99.90;;;;;;486078;244;28776;-78
2023/07/18 06:09:19;;;;;;;3.10;2.80;;;16.50;99.90;;;;;;486070;244;28718;-79
2023/07/18 06:11:21;;;;;;;4.73;3.10;;;16.50;99.90;;;;;;486058;244;28784;-78
2023/07/18 06:13:22;;;;;;;4.87;3.13;;;16.50;99.90;;;;;;485970;244;28828;-81
2023/07/18 06:15:23;;;;;;;7.97;3.50;;;16.50;99.90;;;;;;486065;243;28704;-79
2023/07/18 06:17:24;;;;;;;3.50;3.03;;;16.70;99.90;;;;;;486082;244;29208;-78
2023/07/18 06:19:25;;;;;;;4.50;2.93;;;16.80;99.90;;;;;;486027;244;29195;-81
2023/07/18 06:21:26;;;;;;;3.33;2.90;;;16.90;99.90;;;;;;485995;244;29237;-80
2023/07/18 06:23:29;;;;;;;5.60;3.70;;;16.90;99.90;;;;;;486040;244;29162;-81
2023/07/18 06:25:29;;;;;;;4.30;3.60;;;17.10;99.90;;;;;;486021;243;28710;-80
2023/07/18 06:27:31;;;;;;;5.80;3.60;;;17.10;99.90;;;;;;486014;244;28754;-79
2023/07/18 06:29:32;;;;;;;6.30;2.87;;;17.20;99.90;;;;;;486016;244;28742;-81
2023/07/18 06:31:35;;;;;;;3.23;2.73;;;17.30;99.90;;;;;;486024;244;28851;-80
2023/07/18 06:33:34;;;;;;;5.73;3.00;;;17.30;99.90;;;;;;485925;244;28733;-80
2023/07/18 06:35:37;;;;;;;4.90;3.10;;;17.40;99.90;;;;;;486056;244;28700;-80
2023/07/18 06:37:36;;;;;;;5.93;3.20;;;17.50;99.90;;;;;;485960;244;28820;-79
2023/07/18 06:39:38;;;;;;;3.53;2.70;;;17.50;99.90;;;;;;486042;244;28792;-81
2023/07/18 06:41:39;;;;;;;4.20;3.17;;;17.50;99.90;;;;;;485998;244;29226;-79
2023/07/18 06:43:40;;;;;;;4.13;3.13;;;17.60;99.90;;;;;;486023;244;29415;-78
2023/07/18 06:45:41;;;;;;;5.23;3.30;;;17.80;99.90;;;;;;486069;244;29223;-82
2023/07/18 06:47:43;;;;;;;3.03;2.73;;;17.80;99.90;;;;;;486071;243;29329;-79
2023/07/18 06:49:44;;;;;;;4.80;2.33;;;17.80;99.90;;;;;;486072;243;28721;-79
2023/07/18 06:51:45;;;;;;;5.67;3.23;;;17.80;99.90;;;;;;486077;244;28831;-81
2023/07/18 06:53:46;;;;;;;7.03;3.30;;;17.80;99.90;;;;;;486075;244;28741;-82
2023/07/18 06:55:48;;;;;;;7.53;3.13;;;18.00;99.90;;;;;;486058;244;28714;-79
2023/07/18 06:57:49;;;;;;;5.07;2.90;;;18.10;99.90;;;;;;486079;244;28768;-78
2023/07/18 06:59:50;;;;;;;3.40;2.80;;;18.10;99.90;;;;;;486051;244;28777;-81
2023/07/18 07:01:51;;;;;;;4.67;2.80;;;18.20;99.90;;;;;;486039;244;28775;-79
2023/07/18 07:03:53;;;;;;;2.97;2.60;;;18.30;99.90;;;;;;486117;244;28824;-78
2023/07/18 07:05:54;;;;;;;4.13;2.90;;;18.20;99.90;;;;;;486083;244;28704;-81
2023/07/18 07:07:55;;;;;;;3.63;2.70;;;18.30;99.90;;;;;;486084;244;29327;-79
2023/07/18 07:09:57;;;;;;;10.20;3.37;;;18.30;99.90;;;;;;486099;244;29248;-80
2023/07/18 07:11:58;;;;;;;5.00;3.43;;;18.30;99.90;;;;;;486072;244;29228;-80
2023/07/18 07:13:59;;;;;;;3.27;2.97;;;18.40;99.90;;;;;;486107;244;28754;-84
2023/07/18 07:16:00;;;;;;;4.40;3.00;;;18.40;99.90;;;;;;486098;244;28785;-80
2023/07/18 07:18:02;;;;;;;5.13;3.03;;;18.50;99.90;;;;;;486096;244;28760;-81
2023/07/18 07:20:04;;;;;;;4.20;2.80;;;18.60;99.90;;;;;;486028;244;28754;-81
2023/07/18 07:22:04;;;;;;;4.43;2.87;;;18.70;99.90;;;;;;486020;244;28744;-81
2023/07/18 07:24:05;;;;;;;4.50;2.80;;;18.70;99.90;;;;;;485972;244;28744;-79
2023/07/18 07:26:07;;;;;;;3.60;2.90;;;18.70;99.90;;;;;;486082;244;28796;-82
2023/07/18 07:28:08;;;;;;;3.80;3.03;;;18.70;99.90;;;;;;486010;244;28776;-80
2023/07/18 07:30:09;;;;;;;5.17;3.57;;;18.70;99.90;;;;;;486058;244;29210;-81
2023/07/18 07:32:10;;;;;;;3.20;2.63;;;18.80;99.90;;;;;;486063;244;29332;-81
2023/07/18 07:34:12;;;;;;;4.93;2.63;;;18.90;99.90;;;;;;486080;244;29217;-80
2023/07/18 07:36:13;;;;;;;7.63;3.07;;;18.90;99.90;;;;;;485970;244;29183;-80
2023/07/18 07:38:14;;;;;;;5.27;2.77;;;18.90;99.90;;;;;;486082;244;28760;-80
2023/07/18 07:40:15;;;;;;;4.20;2.60;;;19.00;99.90;;;;;;486053;244;28690;-80
2023/07/18 07:42:17;;;;;;;5.40;3.00;;;19.00;99.90;;;;;;486096;244;28753;-82
2023/07/18 07:44:18;;;;;;;3.83;2.53;;;19.10;99.90;;;;;;486157;244;28747;-81
2023/07/18 07:46:19;;;;;;;4.87;3.00;;;19.10;99.90;;;;;;486123;244;28701;-81
2023/07/18 07:48:21;;;;;;;8.57;2.40;;;19.10;99.90;;;;;;486098;244;28866;-79
2023/07/18 07:50:22;;;;;;;5.20;2.93;;;19.10;99.90;;;;;;486103;244;28868;-82
2023/07/18 07:52:23;;;;;;;3.47;2.53;;;19.20;99.90;;;;;;486145;243;28763;-82
2023/07/18 07:54:24;;;;;;;4.60;2.97;;;19.30;99.90;;;;;;486074;244;28779;-81
2023/07/18 07:56:25;;;;;;;5.63;2.73;;;19.40;99.90;;;;;;486072;244;29197;-82
2023/07/18 07:58:27;;;;;;;3.73;2.60;;;19.30;99.90;;;;;;486098;244;29315;-82
2023/07/18 08:00:28;;;;;;;4.70;2.83;;;19.50;99.90;;;;;;486067;244;29920;-81
2023/07/18 08:02:29;;;;;;;5.43;3.10;;;19.50;99.90;;;;;;486111;244;28722;-81
2023/07/18 08:04:30;;;;;;;3.47;2.70;;;19.50;99.90;;;;;;486156;244;28815;-81
2023/07/18 08:06:32;;;;;;;5.13;2.70;;;19.70;99.90;;;;;;486136;244;28865;-81
2023/07/18 08:08:33;;;;;;;5.60;3.10;;;19.70;99.90;;;;;;486111;244;28855;-79
2023/07/18 08:10:34;;;;;;;3.60;2.57;;;19.90;99.90;;;;;;486139;244;28712;-83
2023/07/18 08:12:35;;;;;;;4.87;2.53;;;19.90;99.90;;;;;;486098;244;28718;-80
2023/07/18 08:14:40;;;;;;;4.33;2.60;;;19.80;99.90;;;;;;486116;244;28732;-82
2023/07/18 08:16:41;;;;;;;4.73;2.87;;;19.90;99.90;;;;;;486137;244;28779;-80
2023/07/18 08:18:42;;;;;;;3.80;2.30;;;20.00;99.90;;;;;;486198;244;28721;-82
2023/07/18 08:20:43;;;;;;;3.80;2.70;;;20.00;99.90;;;;;;486148;244;28748;-81
2023/07/18 08:22:46;;;;;;;6.33;2.57;;;19.90;99.90;;;;;;486156;244;28776;-79
2023/07/18 08:24:46;;;;;;;3.37;2.60;;;20.10;99.90;;;;;;486075;244;29164;-83
2023/07/18 08:26:47;;;;;;;4.77;3.00;;;20.10;99.90;;;;;;486127;244;29273;-81
2023/07/18 08:28:49;;;;;;;3.97;2.67;;;20.10;99.90;;;;;;486142;244;29247;-83
2023/07/18 08:30:50;;;;;;;5.13;2.60;;;20.20;99.90;;;;;;486135;244;30101;-81
2023/07/18 08:32:51;;;;;;;2.73;2.43;;;20.30;99.90;;;;;;486133;244;28820;-81
2023/07/18 08:34:52;;;;;;;6.93;2.70;;;20.30;99.90;;;;;;486188;244;28810;-81
2023/07/18 08:36:53;;;;;;;6.70;2.77;;;20.40;99.90;;;;;;486197;244;28753;-82
2023/07/18 08:38:55;;;;;;;5.90;1.97;;;20.40;99.90;;;;;;486190;244;28792;-82
2023/07/18 08:40:58;;;;;;;3.03;2.00;;;20.30;99.90;;;;;;486146;244;28747;-81
2023/07/18 08:42:57;;;;;;;5.17;2.17;;;20.30;99.90;;;;;;486071;244;29125;-82
2023/07/18 08:44:58;;;;;;;2.70;2.30;;;20.30;99.90;;;;;;486174;244;28771;-81
2023/07/18 08:47:00;;;;;;;2.13;1.90;;;20.40;99.90;;;;;;486130;244;28776;-81
2023/07/18 08:49:01;;;;;;;3.63;2.30;;;20.50;99.90;;;;;;486095;243;28803;-82
2023/07/18 08:51:02;;;;;;;2.30;2.20;;;20.60;99.90;;;;;;486058;244;29293;-83
2023/07/18 08:53:05;;;;;;;2.97;2.00;;;20.70;99.90;;;;;;486126;244;29486;-83
2023/07/18 08:55:05;;;;;;;4.57;2.30;;;20.70;99.90;;;;;;486092;244;29283;-82
2023/07/18 08:57:06;;;;;;;3.60;2.40;;;20.70;99.90;;;;;;486094;244;28775;-80
2023/07/18 08:59:07;;;;;;;3.73;2.40;;;20.80;99.90;;;;;;486136;244;28740;-82
2023/07/18 09:01:08;;;;;;;4.47;2.40;;;20.80;99.90;;;;;;486099;244;28744;-82
2023/07/18 09:03:10;;;;;;;2.90;2.30;;;20.70;99.90;;;;;;486159;244;28768;-81
2023/07/18 09:05:11;;;;;;;3.07;2.50;;;20.70;99.90;;;;;;486160;244;28827;-81
2023/07/18 09:07:12;;;;;;;3.80;2.63;;;21.10;99.90;;;;;;486147;244;28834;-81
2023/07/18 09:09:13;;;;;;;4.30;2.30;;;21.10;99.90;;;;;;486102;244;28781;-82
2023/07/18 09:11:15;;;;;;;2.70;2.10;;;21.10;99.90;;;;;;486088;244;28732;-82
2023/07/18 09:13:16;;;;;;;6.67;2.03;;;21.00;99.90;;;;;;486143;244;28835;-82
2023/07/18 09:15:17;;;;;;;2.50;2.00;;;20.90;99.90;;;;;;486098;244;29202;-83
2023/07/18 09:17:18;;;;;;;5.50;2.80;;;21.20;99.90;;;;;;486130;244;29254;-83
2023/07/18 09:19:20;;;;;;;3.30;2.20;;;21.40;99.90;;;;;;486145;244;29217;-82
2023/07/18 09:21:21;;;;;;;3.27;2.17;;;21.50;99.90;;;;;;486144;244;28787;-82
2023/07/18 09:23:22;;;;;;;4.33;2.50;;;21.50;99.90;;;;;;486182;244;28785;-81
2023/07/18 09:25:24;;;;;;;3.70;2.50;;;21.70;99.90;;;;;;486111;244;28701;-82
2023/07/18 09:27:25;;;;;;;2.27;2.07;;;21.60;99.90;;;;;;486136;244;28780;-82
2023/07/18 09:29:26;;;;;;;3.17;2.43;;;21.80;99.90;;;;;;486182;244;28786;-81
2023/07/18 09:31:27;;;;;;;4.50;2.70;;;21.80;99.90;;;;;;486140;244;28799;-81
2023/07/18 09:33:29;;;;;;;2.57;2.37;;;22.00;99.90;;;;;;486210;244;29186;-81
2023/07/18 09:35:30;;;;;;;2.30;2.10;;;22.20;99.90;;;;;;486159;244;28689;-81
2023/07/18 09:37:31;;;;;;;2.80;2.30;;;22.30;99.90;;;;;;486172;244;28789;-80
2023/07/18 09:39:32;;;;;;;2.70;2.10;;;22.50;99.90;;;;;;486136;244;28709;-81
2023/07/18 09:41:34;;;;;;;4.00;2.37;;;22.70;99.90;;;;;;486155;244;29199;-81
2023/07/18 09:43:35;;;;;;;4.57;2.50;;;23.00;99.90;;;;;;486198;244;29403;-81
2023/07/18 09:45:36;;;;;;;4.40;2.57;;;23.30;99.90;;;;;;486162;244;29169;-81
2023/07/18 09:47:37;;;;;;;4.90;2.10;;;23.30;99.80;;;;;;486133;244;28797;-80
2023/07/18 09:49:38;;;;;;;3.87;2.20;;;23.40;99.90;;;;;;486097;244;28726;-80
2023/07/18 09:51:40;;;;;;;3.43;2.17;;;23.20;99.40;;;;;;486099;244;28705;-80
2023/07/18 09:53:41;;;;;;;2.33;2.13;;;22.90;99.70;;;;;;486216;244;28847;-81
2023/07/18 09:55:42;;;;;;;4.47;2.20;;;22.80;99.30;;;;;;486213;244;28802;-80
2023/07/18 09:57:43;;;;;;;3.43;2.30;;;22.80;99.30;;;;;;486192;244;28827;-81
2023/07/18 09:59:45;;;;;;;2.90;2.40;;;23.10;99.90;;;;;;486170;244;28793;-79
2023/07/18 10:01:46;;;;;;;4.00;2.77;;;23.20;98.50;;;;;;486167;244;28928;-79
2023/07/18 10:03:52;;;;;;;3.50;2.20;;;23.40;99.00;;;;;;486217;244;29226;-78
2023/07/18 10:05:51;;;;;;;3.97;2.57;;;23.40;98.70;;;;;;486049;244;28868;-80
2023/07/18 10:07:53;;;;;;;4.53;2.60;;;23.00;98.80;;;;;;486177;244;28863;-80
2023/07/18 10:09:54;;;;;;;3.23;2.50;;;23.00;99.70;;;;;;486186;244;28816;-80
2023/07/18 10:11:55;;;;;;;3.83;2.23;;;23.10;99.20;;;;;;486145;244;28705;-79
2023/07/18 10:13:56;;;;;;;3.07;2.47;;;23.00;98.70;;;;;;486129;244;28712;-82
2023/07/18 10:15:58;;;;;;;4.80;2.70;;;22.70;98.40;;;;;;486147;244;28815;-80
2023/07/18 10:17:59;;;;;;;5.93;2.63;;;22.70;98.40;;;;;;486143;244;28721;-79
2023/07/18 10:20:00;;;;;;;6.20;2.70;;;22.80;98.40;;;;;;486174;244;28827;-79
2023/07/18 10:22:02;;;;;;;4.07;3.00;;;22.60;98.50;;;;;;486155;244;30253;-80
2023/07/18 10:24:03;;;;;;;5.90;2.40;;;22.60;98.70;;;;;;486195;243;29169;-79
2023/07/18 10:26:04;;;;;;;5.00;3.10;;;22.60;98.60;;;;;;486200;244;29215;-80
2023/07/18 10:28:05;;;;;;;3.23;2.30;;;22.50;98.50;;;;;;486193;244;28716;-81
2023/07/18 10:30:06;;;;;;;3.63;2.80;;;22.60;99.70;;;;;;486164;244;28780;-79
2023/07/18 10:32:08;;;;;;;2.57;2.20;;;22.50;98.70;;;;;;486150;244;28713;-82